Aeroporto :







RITROVATECI SU...

 
LOGIN :

Iscrizione | Disclaimer

   EN    FR    IT 

 









Sommario :    VFR   VFR Marginale   IFR   IFR Intensivo   IFR Molto Intensivo
Visibilità : 
Base nubi : 
>= 8 km
>= 3000ft
5 / 8 km
1000 / 3000 ft
1500m / 5 km
500 / 1000 ft
800 / 1500m
200 / 500 ft
< 800m
< 200 ft
Simboli :   Temporali  Nebbia  Neve Forte  Precipitazioni Forti  Vento > 20 kt






- Altitudine del aeroporto : 1663 ft
- Codice IATA : SLK


KSLK - Adirondack Regional

ULTIMO METAR :
  • 291751Z AUTO VRB04KT 2SM -RA BR SCT008 BKN017 OVC030 13/13 A2984 RMK AO2 SLP101 P0005 60010 T01330133 10206 20133 58001

METARs OBSOLETI :
  • 291736Z AUTO VRB06KT 3SM -RA BR FEW006 SCT010 OVC016 13/13 A2985 RMK AO2 P0004 T01330133
  • 291716Z AUTO 23006KT 4SM -RA BR BKN006 OVC012 14/14 A2984 RMK AO2 CIG 004V008 P0002 T01390139
  • 291706Z AUTO 23006KT 2SM -RA BR OVC006 14/14 A2984 RMK AO2 P0002 T01390139
  • 291651Z AUTO 23005KT 4SM -RA BR BKN008 OVC012 14/14 A2985 RMK AO2 SLP105 P0003 T01390139
  • 291633Z AUTO VRB03KT 3SM -RA BR FEW005 OVC010 14/13 A2985 RMK AO2 CIG 007V015 P0002 T01390133
  • 291631Z AUTO 24005KT 2 1/2SM -RA BR BKN007 OVC013 14/13 A2985 RMK AO2 CIG 005V010 P0002 T01390133
  • 291600Z AUTO 23006KT 4SM -RA BR OVC008 14/14 A2984 RMK AO2 CIG 005V012 P0000 T01440139
  • 291551Z AUTO 24005KT 8SM -RA BKN010 BKN014 OVC030 14/14 A2984 RMK AO2 RAB06E25B41 CIG 006V012 SLP102 P0002 T01440139
  • 291537Z AUTO 25004KT 10SM FEW008 BKN014 OVC030 14/14 A2985 RMK AO2 RAB06E25 P0002 T01440139
  • 291521Z AUTO 25005KT 4SM -RA BR SCT008 SCT016 OVC030 14/14 A2984 RMK AO2 RAB06 P0002 T01440139

TAF KSLK
Valido dal 29 a 18 ore il 30 a 18 ore UTC


291732Z 2918/3018 27007KT 4SM -RA BR BKN006 OVC011
FM292100 24005KT 5SM -RA BR OVC015
FM300700 30005KT 3SM -RA BR OVC003
FIR KZBW / America del Nord



MetMap, La meteo Aeronautica in un colpo d'occhio ! - Copyright ORBIFLY Dicembre 2007 - Disclaimer

ORBIFLY MET'MAP TEAM :

Programmazione e sviluppo : Alexandra Zaïnal
Concezione : Baudouin d'Aumeries
Aiuto per la programmazione : Marc-Olivier Méhu
Supporto tecnico e logistico : Manuel Goepfert
Aiuto per la traduzione : Arnaldo La Scala

Contatto : metmap@orbifly.com




FONTI E CREDITI :

   NOAA